sensor_id;sensor_type;location;lat;lon;timestamp;temperature;humidity
19220;DHT22;9744;49.364;7.484;2023-07-24T00:01:16;19.10;99.90
19220;DHT22;9744;49.364;7.484;2023-07-24T00:03:44;19.10;99.90
19220;DHT22;9744;49.364;7.484;2023-07-24T00:06:11;19.10;99.90
19220;DHT22;9744;49.364;7.484;2023-07-24T00:08:38;19.00;99.90
19220;DHT22;9744;49.364;7.484;2023-07-24T00:11:07;19.00;99.90
19220;DHT22;9744;49.364;7.484;2023-07-24T00:13:35;19.00;99.90
19220;DHT22;9744;49.364;7.484;2023-07-24T00:16:06;19.00;99.90
19220;DHT22;9744;49.364;7.484;2023-07-24T00:18:35;19.00;99.90
19220;DHT22;9744;49.364;7.484;2023-07-24T00:21:02;19.00;99.90
19220;DHT22;9744;49.364;7.484;2023-07-24T00:23:30;19.00;99.90
19220;DHT22;9744;49.364;7.484;2023-07-24T00:25:57;19.00;99.90
19220;DHT22;9744;49.364;7.484;2023-07-24T00:28:24;18.90;99.90
19220;DHT22;9744;49.364;7.484;2023-07-24T00:30:52;18.90;99.90
19220;DHT22;9744;49.364;7.484;2023-07-24T00:33:20;18.90;99.90
19220;DHT22;9744;49.364;7.484;2023-07-24T00:35:49;19.00;99.90
19220;DHT22;9744;49.364;7.484;2023-07-24T00:38:16;18.90;99.90
19220;DHT22;9744;49.364;7.484;2023-07-24T00:40:43;18.80;99.90
19220;DHT22;9744;49.364;7.484;2023-07-24T00:43:11;18.80;99.90
19220;DHT22;9744;49.364;7.484;2023-07-24T00:45:38;18.80;99.90
19220;DHT22;9744;49.364;7.484;2023-07-24T00:48:06;18.80;99.90
19220;DHT22;9744;49.364;7.484;2023-07-24T00:50:33;18.80;99.90
19220;DHT22;9744;49.364;7.484;2023-07-24T00:53:03;18.80;99.90
19220;DHT22;9744;49.364;7.484;2023-07-24T00:55:30;18.70;99.90
19220;DHT22;9744;49.364;7.484;2023-07-24T00:57:58;18.70;99.90
19220;DHT22;9744;49.364;7.484;2023-07-24T01:00:27;18.70;99.90
19220;DHT22;9744;49.364;7.484;2023-07-24T01:02:55;18.70;99.90
19220;DHT22;9744;49.364;7.484;2023-07-24T01:05:25;18.70;99.90
19220;DHT22;9744;49.364;7.484;2023-07-24T01:07:52;18.80;99.90
19220;DHT22;9744;49.364;7.484;2023-07-24T01:10:21;19.00;99.90
19220;DHT22;9744;49.364;7.484;2023-07-24T01:12:53;19.20;99.90
19220;DHT22;9744;49.364;7.484;2023-07-24T01:15:29;19.20;99.90
19220;DHT22;9744;49.364;7.484;2023-07-24T01:18:01;19.10;99.90
19220;DHT22;9744;49.364;7.484;2023-07-24T01:20:31;19.20;99.90
19220;DHT22;9744;49.364;7.484;2023-07-24T01:23:20;19.00;99.90
19220;DHT22;9744;49.364;7.484;2023-07-24T01:25:54;18.90;99.90
19220;DHT22;9744;49.364;7.484;2023-07-24T01:28:22;18.80;99.90
19220;DHT22;9744;49.364;7.484;2023-07-24T01:30:49;18.70;99.90
19220;DHT22;9744;49.364;7.484;2023-07-24T01:33:17;18.60;99.90
19220;DHT22;9744;49.364;7.484;2023-07-24T01:35:48;18.40;99.90
19220;DHT22;9744;49.364;7.484;2023-07-24T01:38:17;18.30;99.90
19220;DHT22;9744;49.364;7.484;2023-07-24T01:40:45;18.30;99.90
19220;DHT22;9744;49.364;7.484;2023-07-24T01:43:14;18.20;99.90
19220;DHT22;9744;49.364;7.484;2023-07-24T01:45:41;18.20;99.90
19220;DHT22;9744;49.364;7.484;2023-07-24T01:48:08;18.10;99.90
19220;DHT22;9744;49.364;7.484;2023-07-24T01:50:36;18.10;99.90
19220;DHT22;9744;49.364;7.484;2023-07-24T01:53:03;18.10;99.90
19220;DHT22;9744;49.364;7.484;2023-07-24T01:55:30;18.20;99.90
19220;DHT22;9744;49.364;7.484;2023-07-24T01:57:57;18.10;99.90
19220;DHT22;9744;49.364;7.484;2023-07-24T02:00:26;18.20;99.90
19220;DHT22;9744;49.364;7.484;2023-07-24T02:02:59;18.10;99.90
19220;DHT22;9744;49.364;7.484;2023-07-24T02:05:26;18.10;99.90
19220;DHT22;9744;49.364;7.484;2023-07-24T02:07:53;18.10;99.90
19220;DHT22;9744;49.364;7.484;2023-07-24T02:10:20;18.10;99.90
19220;DHT22;9744;49.364;7.484;2023-07-24T02:12:47;18.00;99.90
19220;DHT22;9744;49.364;7.484;2023-07-24T02:15:15;17.90;99.90
19220;DHT22;9744;49.364;7.484;2023-07-24T02:17:43;17.90;99.90
19220;DHT22;9744;49.364;7.484;2023-07-24T02:20:11;18.00;99.90
19220;DHT22;9744;49.364;7.484;2023-07-24T02:22:42;18.00;99.90
19220;DHT22;9744;49.364;7.484;2023-07-24T02:25:10;18.10;99.90
19220;DHT22;9744;49.364;7.484;2023-07-24T02:27:37;18.00;99.90
19220;DHT22;9744;49.364;7.484;2023-07-24T02:30:05;18.00;99.90
19220;DHT22;9744;49.364;7.484;2023-07-24T02:32:34;18.00;99.90
19220;DHT22;9744;49.364;7.484;2023-07-24T02:35:04;17.90;99.90
19220;DHT22;9744;49.364;7.484;2023-07-24T02:37:31;17.80;99.90
19220;DHT22;9744;49.364;7.484;2023-07-24T02:39:58;17.80;99.90
19220;DHT22;9744;49.364;7.484;2023-07-24T02:42:27;17.70;99.90
19220;DHT22;9744;49.364;7.484;2023-07-24T02:44:54;17.50;99.90
19220;DHT22;9744;49.364;7.484;2023-07-24T02:47:21;17.40;99.90
19220;DHT22;9744;49.364;7.484;2023-07-24T02:49:48;17.30;99.90
19220;DHT22;9744;49.364;7.484;2023-07-24T02:52:17;17.30;99.90
19220;DHT22;9744;49.364;7.484;2023-07-24T02:54:44;17.40;99.90
19220;DHT22;9744;49.364;7.484;2023-07-24T02:57:11;17.20;99.90
19220;DHT22;9744;49.364;7.484;2023-07-24T02:59:38;17.20;99.90
19220;DHT22;9744;49.364;7.484;2023-07-24T03:02:06;17.20;99.90
19220;DHT22;9744;49.364;7.484;2023-07-24T03:04:33;17.30;99.90
19220;DHT22;9744;49.364;7.484;2023-07-24T03:07:00;17.40;99.90
19220;DHT22;9744;49.364;7.484;2023-07-24T03:09:29;17.30;99.90
19220;DHT22;9744;49.364;7.484;2023-07-24T03:11:59;17.30;99.90
19220;DHT22;9744;49.364;7.484;2023-07-24T03:14:26;17.10;99.90
19220;DHT22;9744;49.364;7.484;2023-07-24T03:16:53;17.00;99.90
19220;DHT22;9744;49.364;7.484;2023-07-24T03:19:21;17.00;99.90
19220;DHT22;9744;49.364;7.484;2023-07-24T03:21:48;17.10;99.90
19220;DHT22;9744;49.364;7.484;2023-07-24T03:24:16;17.20;99.90
19220;DHT22;9744;49.364;7.484;2023-07-24T03:26:45;17.30;99.90
19220;DHT22;9744;49.364;7.484;2023-07-24T03:29:12;17.30;99.90
19220;DHT22;9744;49.364;7.484;2023-07-24T03:31:39;17.30;99.90
19220;DHT22;9744;49.364;7.484;2023-07-24T03:34:06;17.10;99.90
19220;DHT22;9744;49.364;7.484;2023-07-24T03:36:34;17.00;99.90
19220;DHT22;9744;49.364;7.484;2023-07-24T03:39:01;16.90;99.90
19220;DHT22;9744;49.364;7.484;2023-07-24T03:41:28;16.80;99.90
19220;DHT22;9744;49.364;7.484;2023-07-24T03:43:58;16.80;99.90
19220;DHT22;9744;49.364;7.484;2023-07-24T03:46:25;16.80;99.90
19220;DHT22;9744;49.364;7.484;2023-07-24T03:48:52;16.80;99.90
19220;DHT22;9744;49.364;7.484;2023-07-24T03:51:20;16.80;99.90
19220;DHT22;9744;49.364;7.484;2023-07-24T03:53:47;16.80;99.90
19220;DHT22;9744;49.364;7.484;2023-07-24T03:56:14;16.80;99.90
19220;DHT22;9744;49.364;7.484;2023-07-24T03:58:41;16.80;99.90
19220;DHT22;9744;49.364;7.484;2023-07-24T04:01:10;16.80;99.90
19220;DHT22;9744;49.364;7.484;2023-07-24T04:03:38;16.80;99.90
19220;DHT22;9744;49.364;7.484;2023-07-24T04:06:05;16.80;99.90
19220;DHT22;9744;49.364;7.484;2023-07-24T04:08:32;16.80;99.90
19220;DHT22;9744;49.364;7.484;2023-07-24T04:10:59;16.80;99.90
19220;DHT22;9744;49.364;7.484;2023-07-24T04:13:26;16.80;99.90
19220;DHT22;9744;49.364;7.484;2023-07-24T04:15:53;16.80;99.90
19220;DHT22;9744;49.364;7.484;2023-07-24T04:18:24;16.80;99.90
19220;DHT22;9744;49.364;7.484;2023-07-24T04:20:51;16.90;99.90
19220;DHT22;9744;49.364;7.484;2023-07-24T04:23:18;16.90;99.90
19220;DHT22;9744;49.364;7.484;2023-07-24T04:25:45;16.90;99.90
19220;DHT22;9744;49.364;7.484;2023-07-24T04:28:13;17.00;99.90
19220;DHT22;9744;49.364;7.484;2023-07-24T04:30:40;17.00;99.90
19220;DHT22;9744;49.364;7.484;2023-07-24T04:33:07;17.00;99.90
19220;DHT22;9744;49.364;7.484;2023-07-24T04:35:36;17.00;99.90
19220;DHT22;9744;49.364;7.484;2023-07-24T04:38:03;17.00;99.90
19220;DHT22;9744;49.364;7.484;2023-07-24T04:40:31;17.00;99.90
19220;DHT22;9744;49.364;7.484;2023-07-24T04:42:58;17.00;99.90
19220;DHT22;9744;49.364;7.484;2023-07-24T04:45:25;17.00;99.90
19220;DHT22;9744;49.364;7.484;2023-07-24T04:47:52;17.10;99.90
19220;DHT22;9744;49.364;7.484;2023-07-24T04:50:19;17.10;99.90
19220;DHT22;9744;49.364;7.484;2023-07-24T04:52:48;17.10;99.90
19220;DHT22;9744;49.364;7.484;2023-07-24T04:55:15;17.10;99.90
19220;DHT22;9744;49.364;7.484;2023-07-24T04:57:42;17.20;99.90
19220;DHT22;9744;49.364;7.484;2023-07-24T05:00:11;17.20;99.90
19220;DHT22;9744;49.364;7.484;2023-07-24T05:02:38;17.10;99.90
19220;DHT22;9744;49.364;7.484;2023-07-24T05:05:06;17.10;99.90
19220;DHT22;9744;49.364;7.484;2023-07-24T05:07:33;17.20;99.90
19220;DHT22;9744;49.364;7.484;2023-07-24T05:10:03;17.20;99.90
19220;DHT22;9744;49.364;7.484;2023-07-24T05:12:30;17.30;99.90
19220;DHT22;9744;49.364;7.484;2023-07-24T05:14:58;17.30;99.90
19220;DHT22;9744;49.364;7.484;2023-07-24T05:17:25;17.40;99.90
19220;DHT22;9744;49.364;7.484;2023-07-24T05:19:52;17.40;99.90
19220;DHT22;9744;49.364;7.484;2023-07-24T05:22:19;17.50;99.90
19220;DHT22;9744;49.364;7.484;2023-07-24T05:24:46;17.50;99.90
19220;DHT22;9744;49.364;7.484;2023-07-24T05:27:15;17.50;99.90
19220;DHT22;9744;49.364;7.484;2023-07-24T05:29:42;17.60;99.90
19220;DHT22;9744;49.364;7.484;2023-07-24T05:32:10;17.60;99.90
19220;DHT22;9744;49.364;7.484;2023-07-24T05:34:37;17.60;99.90
19220;DHT22;9744;49.364;7.484;2023-07-24T05:37:05;17.60;99.90
19220;DHT22;9744;49.364;7.484;2023-07-24T05:39:32;17.60;99.90
19220;DHT22;9744;49.364;7.484;2023-07-24T05:41:59;17.60;99.90
19220;DHT22;9744;49.364;7.484;2023-07-24T05:44:29;17.60;99.90
19220;DHT22;9744;49.364;7.484;2023-07-24T05:46:56;17.60;99.90
19220;DHT22;9744;49.364;7.484;2023-07-24T05:49:23;17.60;99.90
19220;DHT22;9744;49.364;7.484;2023-07-24T05:51:52;17.60;99.90
19220;DHT22;9744;49.364;7.484;2023-07-24T05:54:19;17.60;99.90
19220;DHT22;9744;49.364;7.484;2023-07-24T05:56:47;17.60;99.90
19220;DHT22;9744;49.364;7.484;2023-07-24T05:59:14;17.60;99.90
19220;DHT22;9744;49.364;7.484;2023-07-24T06:01:42;17.60;99.90
19220;DHT22;9744;49.364;7.484;2023-07-24T06:04:10;17.60;99.90
19220;DHT22;9744;49.364;7.484;2023-07-24T06:06:37;17.60;99.90
19220;DHT22;9744;49.364;7.484;2023-07-24T06:09:04;17.60;99.90
19220;DHT22;9744;49.364;7.484;2023-07-24T06:11:31;17.60;99.90
19220;DHT22;9744;49.364;7.484;2023-07-24T06:13:58;17.60;99.90
19220;DHT22;9744;49.364;7.484;2023-07-24T06:16:26;17.60;99.90
19220;DHT22;9744;49.364;7.484;2023-07-24T06:18:55;17.60;99.90
19220;DHT22;9744;49.364;7.484;2023-07-24T06:21:22;17.60;99.90
19220;DHT22;9744;49.364;7.484;2023-07-24T06:23:49;17.60;99.90
19220;DHT22;9744;49.364;7.484;2023-07-24T06:26:16;17.60;99.90
19220;DHT22;9744;49.364;7.484;2023-07-24T06:28:43;17.60;99.90
19220;DHT22;9744;49.364;7.484;2023-07-24T06:31:11;17.70;99.90
19220;DHT22;9744;49.364;7.484;2023-07-24T06:33:38;17.70;99.90
19220;DHT22;9744;49.364;7.484;2023-07-24T06:36:10;17.80;99.90
19220;DHT22;9744;49.364;7.484;2023-07-24T06:38:38;17.90;99.90
19220;DHT22;9744;49.364;7.484;2023-07-24T06:41:05;17.90;99.90
19220;DHT22;9744;49.364;7.484;2023-07-24T06:43:33;17.90;99.90
19220;DHT22;9744;49.364;7.484;2023-07-24T06:46:00;18.00;99.90
19220;DHT22;9744;49.364;7.484;2023-07-24T06:48:27;18.00;99.90
19220;DHT22;9744;49.364;7.484;2023-07-24T06:50:54;18.10;99.90
19220;DHT22;9744;49.364;7.484;2023-07-24T06:53:23;18.20;99.90
19220;DHT22;9744;49.364;7.484;2023-07-24T06:55:50;18.20;99.90
19220;DHT22;9744;49.364;7.484;2023-07-24T06:58:17;18.10;99.90
19220;DHT22;9744;49.364;7.484;2023-07-24T07:00:44;18.20;99.90
19220;DHT22;9744;49.364;7.484;2023-07-24T07:03:11;18.30;99.90
19220;DHT22;9744;49.364;7.484;2023-07-24T07:05:39;18.40;99.90
19220;DHT22;9744;49.364;7.484;2023-07-24T07:08:06;18.50;99.90
19220;DHT22;9744;49.364;7.484;2023-07-24T07:10:34;18.50;99.90
19220;DHT22;9744;49.364;7.484;2023-07-24T07:13:02;18.50;99.90
19220;DHT22;9744;49.364;7.484;2023-07-24T07:15:29;18.60;99.90
19220;DHT22;9744;49.364;7.484;2023-07-24T07:17:56;18.60;99.90
19220;DHT22;9744;49.364;7.484;2023-07-24T07:20:24;18.60;99.90
19220;DHT22;9744;49.364;7.484;2023-07-24T07:22:51;18.50;99.90
19220;DHT22;9744;49.364;7.484;2023-07-24T07:25:18;18.60;99.90
19220;DHT22;9744;49.364;7.484;2023-07-24T07:27:47;18.60;99.90
19220;DHT22;9744;49.364;7.484;2023-07-24T07:30:14;18.50;99.90
19220;DHT22;9744;49.364;7.484;2023-07-24T07:32:42;18.50;99.90
19220;DHT22;9744;49.364;7.484;2023-07-24T07:35:09;19.00;99.90
19220;DHT22;9744;49.364;7.484;2023-07-24T07:37:36;18.60;99.90
19220;DHT22;9744;49.364;7.484;2023-07-24T07:40:04;18.60;99.90
19220;DHT22;9744;49.364;7.484;2023-07-24T07:42:32;18.60;99.90
19220;DHT22;9744;49.364;7.484;2023-07-24T07:45:01;18.60;99.90
19220;DHT22;9744;49.364;7.484;2023-07-24T07:47:28;18.70;99.90
19220;DHT22;9744;49.364;7.484;2023-07-24T07:49:55;18.80;99.90
19220;DHT22;9744;49.364;7.484;2023-07-24T07:52:23;18.90;99.90
19220;DHT22;9744;49.364;7.484;2023-07-24T07:54:50;18.90;99.90
19220;DHT22;9744;49.364;7.484;2023-07-24T07:57:17;19.00;99.90
19220;DHT22;9744;49.364;7.484;2023-07-24T07:59:44;19.10;99.90
19220;DHT22;9744;49.364;7.484;2023-07-24T08:02:13;19.20;99.90
19220;DHT22;9744;49.364;7.484;2023-07-24T08:04:40;19.40;99.90
19220;DHT22;9744;49.364;7.484;2023-07-24T08:07:07;19.60;99.90
19220;DHT22;9744;49.364;7.484;2023-07-24T08:09:34;19.60;99.90
19220;DHT22;9744;49.364;7.484;2023-07-24T08:12:04;19.70;99.90
19220;DHT22;9744;49.364;7.484;2023-07-24T08:14:31;19.80;99.90
19220;DHT22;9744;49.364;7.484;2023-07-24T08:16:58;19.90;99.90
19220;DHT22;9744;49.364;7.484;2023-07-24T08:19:29;20.10;99.90
19220;DHT22;9744;49.364;7.484;2023-07-24T08:21:56;20.20;99.90
19220;DHT22;9744;49.364;7.484;2023-07-24T08:24:24;20.20;99.90
19220;DHT22;9744;49.364;7.484;2023-07-24T08:26:51;20.20;99.90
19220;DHT22;9744;49.364;7.484;2023-07-24T08:29:18;20.20;99.90
19220;DHT22;9744;49.364;7.484;2023-07-24T08:31:45;20.20;99.90
19220;DHT22;9744;49.364;7.484;2023-07-24T08:34:12;20.10;99.90
19220;DHT22;9744;49.364;7.484;2023-07-24T08:36:41;20.00;99.90
19220;DHT22;9744;49.364;7.484;2023-07-24T08:39:08;19.90;99.90
19220;DHT22;9744;49.364;7.484;2023-07-24T08:41:36;19.80;99.90
19220;DHT22;9744;49.364;7.484;2023-07-24T08:44:04;19.70;99.90
19220;DHT22;9744;49.364;7.484;2023-07-24T08:46:35;19.70;99.90
19220;DHT22;9744;49.364;7.484;2023-07-24T08:49:04;19.80;99.90
19220;DHT22;9744;49.364;7.484;2023-07-24T08:51:31;19.70;99.90
19220;DHT22;9744;49.364;7.484;2023-07-24T08:54:01;19.70;99.90
19220;DHT22;9744;49.364;7.484;2023-07-24T08:56:29;19.50;99.90
19220;DHT22;9744;49.364;7.484;2023-07-24T08:58:57;19.50;99.90
19220;DHT22;9744;49.364;7.484;2023-07-24T09:01:24;19.40;99.90
19220;DHT22;9744;49.364;7.484;2023-07-24T09:03:52;19.30;99.90
19220;DHT22;9744;49.364;7.484;2023-07-24T09:06:19;19.30;99.90
19220;DHT22;9744;49.364;7.484;2023-07-24T09:08:46;19.40;99.90
19220;DHT22;9744;49.364;7.484;2023-07-24T09:11:15;19.50;99.90
19220;DHT22;9744;49.364;7.484;2023-07-24T09:13:43;19.50;99.90
19220;DHT22;9744;49.364;7.484;2023-07-24T09:16:21;19.60;99.90
19220;DHT22;9744;49.364;7.484;2023-07-24T09:18:49;19.60;99.90
19220;DHT22;9744;49.364;7.484;2023-07-24T09:21:27;19.70;99.90
19220;DHT22;9744;49.364;7.484;2023-07-24T09:23:54;19.80;99.90
19220;DHT22;9744;49.364;7.484;2023-07-24T09:26:23;19.90;99.90
19220;DHT22;9744;49.364;7.484;2023-07-24T09:28:54;20.00;99.90
19220;DHT22;9744;49.364;7.484;2023-07-24T09:31:21;20.10;99.90
19220;DHT22;9744;49.364;7.484;2023-07-24T09:33:48;20.20;99.90
19220;DHT22;9744;49.364;7.484;2023-07-24T09:36:15;20.20;99.90
19220;DHT22;9744;49.364;7.484;2023-07-24T09:38:42;20.30;99.90
19220;DHT22;9744;49.364;7.484;2023-07-24T09:41:09;20.30;99.90
19220;DHT22;9744;49.364;7.484;2023-07-24T09:43:39;20.40;99.90
19220;DHT22;9744;49.364;7.484;2023-07-24T09:46:06;20.50;99.90
19220;DHT22;9744;49.364;7.484;2023-07-24T09:48:33;20.50;99.90
19220;DHT22;9744;49.364;7.484;2023-07-24T09:51:01;20.60;99.90
19220;DHT22;9744;49.364;7.484;2023-07-24T09:53:33;20.60;99.90
19220;DHT22;9744;49.364;7.484;2023-07-24T09:56:03;20.60;99.90
19220;DHT22;9744;49.364;7.484;2023-07-24T09:58:32;20.60;99.90
19220;DHT22;9744;49.364;7.484;2023-07-24T10:01:02;20.70;99.90
19220;DHT22;9744;49.364;7.484;2023-07-24T10:03:30;20.60;99.90
19220;DHT22;9744;49.364;7.484;2023-07-24T10:05:58;20.60;99.90
19220;DHT22;9744;49.364;7.484;2023-07-24T10:08:25;20.50;99.90
19220;DHT22;9744;49.364;7.484;2023-07-24T10:10:53;20.50;99.90
19220;DHT22;9744;49.364;7.484;2023-07-24T10:13:21;20.50;99.90
19220;DHT22;9744;49.364;7.484;2023-07-24T10:15:49;20.50;99.90
19220;DHT22;9744;49.364;7.484;2023-07-24T10:18:17;20.60;99.90
19220;DHT22;9744;49.364;7.484;2023-07-24T10:21:00;20.60;99.90
19220;DHT22;9744;49.364;7.484;2023-07-24T10:23:28;20.60;99.90
19220;DHT22;9744;49.364;7.484;2023-07-24T10:25:55;20.60;99.90
19220;DHT22;9744;49.364;7.484;2023-07-24T10:28:30;20.50;99.90
19220;DHT22;9744;49.364;7.484;2023-07-24T10:30:58;20.60;99.90
19220;DHT22;9744;49.364;7.484;2023-07-24T10:33:30;20.60;99.90
19220;DHT22;9744;49.364;7.484;2023-07-24T10:36:04;20.60;99.90
19220;DHT22;9744;49.364;7.484;2023-07-24T10:38:34;20.60;99.90
19220;DHT22;9744;49.364;7.484;2023-07-24T10:41:03;20.60;99.90
19220;DHT22;9744;49.364;7.484;2023-07-24T10:43:40;20.60;99.90
19220;DHT22;9744;49.364;7.484;2023-07-24T10:46:08;20.60;99.90
19220;DHT22;9744;49.364;7.484;2023-07-24T10:48:37;20.70;99.90
19220;DHT22;9744;49.364;7.484;2023-07-24T10:51:09;20.80;99.90
19220;DHT22;9744;49.364;7.484;2023-07-24T10:53:37;20.80;99.90
19220;DHT22;9744;49.364;7.484;2023-07-24T10:56:05;20.70;99.90
19220;DHT22;9744;49.364;7.484;2023-07-24T10:58:33;20.80;99.90
19220;DHT22;9744;49.364;7.484;2023-07-24T11:01:04;20.80;99.90
19220;DHT22;9744;49.364;7.484;2023-07-24T11:03:35;20.80;99.90
19220;DHT22;9744;49.364;7.484;2023-07-24T11:06:04;20.80;99.90
19220;DHT22;9744;49.364;7.484;2023-07-24T11:08:31;21.00;99.90
19220;DHT22;9744;49.364;7.484;2023-07-24T11:10:59;21.00;99.90
19220;DHT22;9744;49.364;7.484;2023-07-24T11:13:28;21.10;99.90
19220;DHT22;9744;49.364;7.484;2023-07-24T11:15:56;21.40;99.90
19220;DHT22;9744;49.364;7.484;2023-07-24T11:18:23;21.30;99.90
19220;DHT22;9744;49.364;7.484;2023-07-24T11:20:54;21.30;99.90
19220;DHT22;9744;49.364;7.484;2023-07-24T11:23:23;21.20;99.90
19220;DHT22;9744;49.364;7.484;2023-07-24T11:25:51;21.20;99.90
19220;DHT22;9744;49.364;7.484;2023-07-24T11:28:19;21.30;99.90
19220;DHT22;9744;49.364;7.484;2023-07-24T11:30:47;21.30;99.90
19220;DHT22;9744;49.364;7.484;2023-07-24T11:33:15;21.30;99.90
19220;DHT22;9744;49.364;7.484;2023-07-24T11:35:43;21.30;99.90
19220;DHT22;9744;49.364;7.484;2023-07-24T11:38:10;21.20;99.90
19220;DHT22;9744;49.364;7.484;2023-07-24T11:40:42;21.40;99.90
19220;DHT22;9744;49.364;7.484;2023-07-24T11:43:16;21.50;99.90
19220;DHT22;9744;49.364;7.484;2023-07-24T11:45:44;21.90;99.90
19220;DHT22;9744;49.364;7.484;2023-07-24T11:48:12;22.20;99.90
19220;DHT22;9744;49.364;7.484;2023-07-24T11:50:43;22.20;99.90
19220;DHT22;9744;49.364;7.484;2023-07-24T11:53:19;22.10;99.90
19220;DHT22;9744;49.364;7.484;2023-07-24T11:55:49;22.10;99.90
19220;DHT22;9744;49.364;7.484;2023-07-24T11:58:17;22.20;99.90
19220;DHT22;9744;49.364;7.484;2023-07-24T12:00:46;22.10;99.90
19220;DHT22;9744;49.364;7.484;2023-07-24T12:03:13;21.90;99.90
19220;DHT22;9744;49.364;7.484;2023-07-24T12:05:42;21.80;99.90
19220;DHT22;9744;49.364;7.484;2023-07-24T12:08:09;21.70;99.90
19220;DHT22;9744;49.364;7.484;2023-07-24T12:10:38;21.70;99.90
19220;DHT22;9744;49.364;7.484;2023-07-24T12:13:07;21.50;99.90
19220;DHT22;9744;49.364;7.484;2023-07-24T12:15:34;21.30;99.90
19220;DHT22;9744;49.364;7.484;2023-07-24T12:18:02;21.00;99.90
19220;DHT22;9744;49.364;7.484;2023-07-24T12:20:29;20.60;99.90
19220;DHT22;9744;49.364;7.484;2023-07-24T12:22:57;20.30;99.90
19220;DHT22;9744;49.364;7.484;2023-07-24T12:28:06;19.60;99.90
19220;DHT22;9744;49.364;7.484;2023-07-24T12:30:33;19.40;99.90
19220;DHT22;9744;49.364;7.484;2023-07-24T12:33:00;19.30;99.90
19220;DHT22;9744;49.364;7.484;2023-07-24T12:35:27;19.10;99.90
19220;DHT22;9744;49.364;7.484;2023-07-24T12:37:55;19.10;99.90
19220;DHT22;9744;49.364;7.484;2023-07-24T12:40:22;19.00;99.90
19220;DHT22;9744;49.364;7.484;2023-07-24T12:42:49;18.80;99.90
19220;DHT22;9744;49.364;7.484;2023-07-24T12:45:18;18.90;99.90
19220;DHT22;9744;49.364;7.484;2023-07-24T12:47:45;18.80;99.90
19220;DHT22;9744;49.364;7.484;2023-07-24T12:50:12;18.80;99.90
19220;DHT22;9744;49.364;7.484;2023-07-24T12:52:39;18.70;99.90
19220;DHT22;9744;49.364;7.484;2023-07-24T12:55:07;18.80;99.90
19220;DHT22;9744;49.364;7.484;2023-07-24T12:57:34;18.90;99.90
19220;DHT22;9744;49.364;7.484;2023-07-24T13:00:02;19.00;99.90
19220;DHT22;9744;49.364;7.484;2023-07-24T13:02:32;19.10;99.90
19220;DHT22;9744;49.364;7.484;2023-07-24T13:05:00;19.30;99.90
19220;DHT22;9744;49.364;7.484;2023-07-24T13:07:27;19.50;99.90
19220;DHT22;9744;49.364;7.484;2023-07-24T13:09:55;19.80;99.90
19220;DHT22;9744;49.364;7.484;2023-07-24T13:12:22;20.10;99.90
19220;DHT22;9744;49.364;7.484;2023-07-24T13:14:49;20.30;99.90
19220;DHT22;9744;49.364;7.484;2023-07-24T13:17:16;20.70;99.90
19220;DHT22;9744;49.364;7.484;2023-07-24T13:19:45;20.60;99.90
19220;DHT22;9744;49.364;7.484;2023-07-24T13:22:12;20.70;99.90
19220;DHT22;9744;49.364;7.484;2023-07-24T13:24:39;20.60;99.90
19220;DHT22;9744;49.364;7.484;2023-07-24T13:27:07;20.30;99.90
19220;DHT22;9744;49.364;7.484;2023-07-24T13:29:34;20.10;99.90
19220;DHT22;9744;49.364;7.484;2023-07-24T13:32:01;19.90;99.90
19220;DHT22;9744;49.364;7.484;2023-07-24T13:34:28;19.70;99.90
19220;DHT22;9744;49.364;7.484;2023-07-24T13:36:57;19.60;99.90
19220;DHT22;9744;49.364;7.484;2023-07-24T13:39:24;19.70;99.90
19220;DHT22;9744;49.364;7.484;2023-07-24T13:41:53;19.90;99.90
19220;DHT22;9744;49.364;7.484;2023-07-24T13:44:21;20.10;99.90
19220;DHT22;9744;49.364;7.484;2023-07-24T13:46:49;20.50;99.90
19220;DHT22;9744;49.364;7.484;2023-07-24T13:49:16;20.80;99.90
19220;DHT22;9744;49.364;7.484;2023-07-24T13:51:43;21.20;99.90
19220;DHT22;9744;49.364;7.484;2023-07-24T13:54:12;21.50;99.90
19220;DHT22;9744;49.364;7.484;2023-07-24T13:56:39;21.50;99.90
19220;DHT22;9744;49.364;7.484;2023-07-24T13:59:09;21.70;99.90
19220;DHT22;9744;49.364;7.484;2023-07-24T14:01:36;21.70;99.90
19220;DHT22;9744;49.364;7.484;2023-07-24T14:04:04;22.00;99.90
19220;DHT22;9744;49.364;7.484;2023-07-24T14:06:31;22.10;99.90
19220;DHT22;9744;49.364;7.484;2023-07-24T14:08:58;22.20;99.90
19220;DHT22;9744;49.364;7.484;2023-07-24T14:11:27;21.90;99.90
19220;DHT22;9744;49.364;7.484;2023-07-24T14:13:55;21.50;99.90
19220;DHT22;9744;49.364;7.484;2023-07-24T14:16:22;21.50;99.90
19220;DHT22;9744;49.364;7.484;2023-07-24T14:18:49;21.20;99.90
19220;DHT22;9744;49.364;7.484;2023-07-24T14:21:17;20.90;99.90
19220;DHT22;9744;49.364;7.484;2023-07-24T14:23:44;20.80;99.90
19220;DHT22;9744;49.364;7.484;2023-07-24T14:26:12;20.40;99.90
19220;DHT22;9744;49.364;7.484;2023-07-24T14:28:41;20.10;99.90
19220;DHT22;9744;49.364;7.484;2023-07-24T14:31:08;19.90;99.90
19220;DHT22;9744;49.364;7.484;2023-07-24T14:33:35;19.80;99.90
19220;DHT22;9744;49.364;7.484;2023-07-24T14:36:02;19.70;99.90
19220;DHT22;9744;49.364;7.484;2023-07-24T14:38:30;19.80;99.90
19220;DHT22;9744;49.364;7.484;2023-07-24T14:40:57;20.10;99.90
19220;DHT22;9744;49.364;7.484;2023-07-24T14:43:24;20.00;99.90
19220;DHT22;9744;49.364;7.484;2023-07-24T14:45:53;20.00;99.90
19220;DHT22;9744;49.364;7.484;2023-07-24T14:48:20;20.20;99.90
19220;DHT22;9744;49.364;7.484;2023-07-24T14:50:47;20.50;99.90
19220;DHT22;9744;49.364;7.484;2023-07-24T14:53:14;20.60;99.90
19220;DHT22;9744;49.364;7.484;2023-07-24T14:55:41;20.20;99.90
19220;DHT22;9744;49.364;7.484;2023-07-24T14:58:08;20.00;99.90
19220;DHT22;9744;49.364;7.484;2023-07-24T15:00:36;19.70;99.90
19220;DHT22;9744;49.364;7.484;2023-07-24T15:03:04;19.60;99.90
19220;DHT22;9744;49.364;7.484;2023-07-24T15:05:32;19.70;99.90
19220;DHT22;9744;49.364;7.484;2023-07-24T15:07:59;19.70;99.90
19220;DHT22;9744;49.364;7.484;2023-07-24T15:10:26;19.90;99.90
19220;DHT22;9744;49.364;7.484;2023-07-24T15:12:53;20.00;99.90
19220;DHT22;9744;49.364;7.484;2023-07-24T15:15:21;20.00;99.90
19220;DHT22;9744;49.364;7.484;2023-07-24T15:17:48;20.20;99.90
19220;DHT22;9744;49.364;7.484;2023-07-24T15:20:17;20.40;99.90
19220;DHT22;9744;49.364;7.484;2023-07-24T15:22:44;20.70;99.90
19220;DHT22;9744;49.364;7.484;2023-07-24T15:25:11;20.70;99.90
19220;DHT22;9744;49.364;7.484;2023-07-24T15:27:39;21.00;99.90
19220;DHT22;9744;49.364;7.484;2023-07-24T15:30:07;21.10;99.90
19220;DHT22;9744;49.364;7.484;2023-07-24T15:32:34;21.30;99.90
19220;DHT22;9744;49.364;7.484;2023-07-24T15:35:01;21.50;99.90
19220;DHT22;9744;49.364;7.484;2023-07-24T15:37:30;21.60;99.90
19220;DHT22;9744;49.364;7.484;2023-07-24T15:39:58;21.40;99.90
19220;DHT22;9744;49.364;7.484;2023-07-24T15:42:25;21.40;99.90
19220;DHT22;9744;49.364;7.484;2023-07-24T15:44:53;21.50;99.90
19220;DHT22;9744;49.364;7.484;2023-07-24T15:47:20;21.10;99.90
19220;DHT22;9744;49.364;7.484;2023-07-24T15:49:47;20.60;99.90
19220;DHT22;9744;49.364;7.484;2023-07-24T15:52:15;20.60;99.90